Waterville, WA (98858)

5:23 PM PDT on April 26, 2015 (GMT -0700)
The Highlands | | Change Station
CLOSE
Current Station
Personal Weather Station
Location: Chelan, WA
Elevation: 1610 ft
Nearby Weather Stations

Elev 1610 ft 47.86 °N, 120.04 °W | Updated 17 seconds ago

Clear
Clear
64.2 °F
Feels Like 64.2 °F
N
1.0
Wind Variable Wind from WNW
Gusts 5.0 mph

Today
High -- | Low -- °F
--% Chance of Precip.
Yesterday
High -- | Low -- °F
Precip. -- in
5:50 AM 8:04 PM
First Quarter, 60% visible
Pressure 30.17 in
Visibility 10.0 miles
Clouds Clear
Dew Point 30 °F
Humidity 28%
Rainfall 0.00 in
Snow Depth Not available.
UV 3 out of 12
Pollen 9.10 out of 12
Air Quality Not available.
Flu Activity Regional
METAR KEAT 262355Z AUTO 14007KT 10SM CLR 18/M06 A3016 RMK AO2 SLP215 T01831056 10183 20117 55003

More Conditions Fewer Conditions

Pressure 30.17 in
Visibility 10.0 miles
Clouds Clear
Dew Point 30 °F
Humidity 28%
Rainfall 0.00 in
Snow Depth Not available.
UV 3 out of 12
Pollen 9.10 out of 12
Air Quality Not available.
Flu Activity Regional
METAR KEAT 262355Z AUTO 14007KT 10SM CLR 18/M06 A3016 RMK AO2 SLP215 T01831056 10183 20117 55003

More Conditions Fewer Conditions

The full scope of the disaster following a powerful 7.8-magnitude earthquake in Nepal may not come into view for days, but global charities are already sending emergency aid. Click to see how you can help.

10-Day Weather Forecast

Almanac

Astronomy

Apr. 26, 2015 Rise Set
Actual Time
Civil Twilight
Nautical Twilight
Astronomical Twilight
Moon
Length of Visible Light
Length of Day
Tomorrow will be .
, % of the Moon is Illuminated

Today's Extremes

State Highs State Lows

Community

WunderPhotos

Upload Photos

1,817,173 photos uploaded!

WunderBlogs® & News

Nearby

Air Quality

  Air Quality AQ Index Pollutant
Not available.

Snow Depth

Station Depth Elevation

Earthquake Activity

City Distance Mag. Time & Date
Minimum magnitude displayed is 2.5.

Coastal Water Temperatures

Place Temperature

Stations

Nearby Weather Stations

Station Location Temp. Windchill Dew Point Humidity Wind Precip. Elev Updated Type